Braxton, Mississippi
Current Conditions -  °F | °C
As of 11:12 AM on Sunday 23 Nov 2014 (Local Time) from KJAN Reporting Station
Broken Clouds Broken Clouds  
Wind Chill: 68°   Ceiling: 3100
Heat Index: 68°   Visibility: 10mi
Dew Point: 63°   Wind: 17mph
Humidity: 84%   Direction: 190°S
Pressure: 29.56"   Gusts: 24mph
Location:  32.03°N, 89.97°W
Report Text: KJAN 231712Z 19015G21KT 10SM SCT017 SCT022 BKN031 20/17 A2956 RMK AO2 T02000172
Loading
Personal Weather Stations






























Interactive Weather Map New forecast layout! Learn more

10-Day Weather Forecast

Advertisements
Track Severe Weather on mobile